sensor_id;sensor_type;location;lat;lon;timestamp;pressure;altitude;pressure_sealevel;temperature;humidity
70909;BME280;58554;52.006;5.926;2023-05-03T00:01:07;102095.97;;;9.71;47.67
70909;BME280;58554;52.006;5.926;2023-05-03T00:03:34;102094.22;;;9.70;47.67
70909;BME280;58554;52.006;5.926;2023-05-03T00:06:08;102107.44;;;9.70;47.85
70909;BME280;58554;52.006;5.926;2023-05-03T00:08:38;102100.44;;;9.69;47.90
70909;BME280;58554;52.006;5.926;2023-05-03T00:11:05;102093.38;;;9.70;47.98
70909;BME280;58554;52.006;5.926;2023-05-03T00:13:32;102101.31;;;9.70;47.64
70909;BME280;58554;52.006;5.926;2023-05-03T00:15:59;102106.69;;;9.67;47.78
70909;BME280;58554;52.006;5.926;2023-05-03T00:18:25;102098.81;;;9.65;47.69
70909;BME280;58554;52.006;5.926;2023-05-03T00:20:52;102096.22;;;9.64;47.89
70909;BME280;58554;52.006;5.926;2023-05-03T00:23:19;102100.66;;;9.63;47.75
70909;BME280;58554;52.006;5.926;2023-05-03T00:25:51;102099.81;;;9.61;48.04
70909;BME280;58554;52.006;5.926;2023-05-03T00:28:18;102091.91;;;9.61;48.03
70909;BME280;58554;52.006;5.926;2023-05-03T00:30:44;102097.22;;;9.60;48.04
70909;BME280;58554;52.006;5.926;2023-05-03T00:33:11;102092.06;;;9.57;48.15
70909;BME280;58554;52.006;5.926;2023-05-03T00:35:38;102094.75;;;9.55;48.09
70909;BME280;58554;52.006;5.926;2023-05-03T00:38:04;102096.56;;;9.53;47.96
70909;BME280;58554;52.006;5.926;2023-05-03T00:40:31;102097.47;;;9.52;47.91
70909;BME280;58554;52.006;5.926;2023-05-03T00:43:01;102094.97;;;9.47;47.94
70909;BME280;58554;52.006;5.926;2023-05-03T00:45:29;102097.69;;;9.46;48.19
70909;BME280;58554;52.006;5.926;2023-05-03T00:47:58;102095.94;;;9.45;48.03
70909;BME280;58554;52.006;5.926;2023-05-03T00:50:26;102089.88;;;9.41;48.33
70909;BME280;58554;52.006;5.926;2023-05-03T00:52:53;102097.91;;;9.38;48.11
70909;BME280;58554;52.006;5.926;2023-05-03T00:55:21;102092.78;;;9.33;48.15
70909;BME280;58554;52.006;5.926;2023-05-03T00:57:49;102096.44;;;9.29;48.52
70909;BME280;58554;52.006;5.926;2023-05-03T01:00:19;102094.66;;;9.28;48.33
70909;BME280;58554;52.006;5.926;2023-05-03T01:02:45;102095.66;;;9.24;48.28
70909;BME280;58554;52.006;5.926;2023-05-03T01:05:12;102095.75;;;9.21;48.54
70909;BME280;58554;52.006;5.926;2023-05-03T01:07:44;102090.56;;;9.18;48.68
70909;BME280;58554;52.006;5.926;2023-05-03T01:10:26;102084.47;;;9.16;48.69
70909;BME280;58554;52.006;5.926;2023-05-03T01:13:08;102088.88;;;9.16;48.55
70909;BME280;58554;52.006;5.926;2023-05-03T01:15:51;102085.44;;;9.13;48.74
70909;BME280;58554;52.006;5.926;2023-05-03T01:18:29;102085.47;;;9.12;48.85
70909;BME280;58554;52.006;5.926;2023-05-03T01:20:59;102091.66;;;9.11;48.70
70909;BME280;58554;52.006;5.926;2023-05-03T01:23:31;102097.03;;;9.08;48.67
70909;BME280;58554;52.006;5.926;2023-05-03T01:26:18;102094.44;;;9.06;49.05
70909;BME280;58554;52.006;5.926;2023-05-03T01:28:45;102100.66;;;9.04;48.88
70909;BME280;58554;52.006;5.926;2023-05-03T01:31:17;102097.19;;;9.02;48.91
70909;BME280;58554;52.006;5.926;2023-05-03T01:33:54;102103.44;;;8.99;48.99
70909;BME280;58554;52.006;5.926;2023-05-03T01:36:42;102102.66;;;8.96;48.99
70909;BME280;58554;52.006;5.926;2023-05-03T01:39:18;102097.47;;;8.92;49.24
70909;BME280;58554;52.006;5.926;2023-05-03T01:41:52;102097.56;;;8.89;49.42
70909;BME280;58554;52.006;5.926;2023-05-03T01:44:21;102102.00;;;8.87;49.32
70909;BME280;58554;52.006;5.926;2023-05-03T01:46:49;102100.28;;;8.86;49.26
70909;BME280;58554;52.006;5.926;2023-05-03T01:49:16;102100.41;;;8.83;49.30
70909;BME280;58554;52.006;5.926;2023-05-03T01:51:42;102097.84;;;8.80;49.46
70909;BME280;58554;52.006;5.926;2023-05-03T01:54:09;102096.16;;;8.78;49.64
70909;BME280;58554;52.006;5.926;2023-05-03T01:56:36;102097.13;;;8.75;49.56
70909;BME280;58554;52.006;5.926;2023-05-03T01:59:06;102094.50;;;8.73;49.49
70909;BME280;58554;52.006;5.926;2023-05-03T02:01:32;102098.13;;;8.69;49.69
70909;BME280;58554;52.006;5.926;2023-05-03T02:03:58;102100.81;;;8.68;49.52
70909;BME280;58554;52.006;5.926;2023-05-03T02:06:25;102100.81;;;8.68;49.56
70909;BME280;58554;52.006;5.926;2023-05-03T02:08:52;102100.00;;;8.66;49.61
70909;BME280;58554;52.006;5.926;2023-05-03T02:11:18;102096.53;;;8.64;49.62
70909;BME280;58554;52.006;5.926;2023-05-03T02:13:47;102092.22;;;8.61;49.67
70909;BME280;58554;52.006;5.926;2023-05-03T02:16:16;102095.75;;;8.60;49.87
70909;BME280;58554;52.006;5.926;2023-05-03T02:18:43;102098.44;;;8.59;49.93
70909;BME280;58554;52.006;5.926;2023-05-03T02:21:10;102100.25;;;8.57;50.00
70909;BME280;58554;52.006;5.926;2023-05-03T02:23:36;102093.25;;;8.56;49.82
70909;BME280;58554;52.006;5.926;2023-05-03T02:26:03;102095.91;;;8.54;50.00
70909;BME280;58554;52.006;5.926;2023-05-03T02:28:29;102096.00;;;8.51;50.04
70909;BME280;58554;52.006;5.926;2023-05-03T02:30:56;102086.41;;;8.48;49.99
70909;BME280;58554;52.006;5.926;2023-05-03T02:33:25;102083.84;;;8.45;49.90
70909;BME280;58554;52.006;5.926;2023-05-03T02:35:51;102089.19;;;8.44;50.06
70909;BME280;58554;52.006;5.926;2023-05-03T02:38:18;102085.72;;;8.42;50.17
70909;BME280;58554;52.006;5.926;2023-05-03T02:40:47;102072.59;;;8.40;50.16
70909;BME280;58554;52.006;5.926;2023-05-03T02:43:13;102081.31;;;8.42;50.41
70909;BME280;58554;52.006;5.926;2023-05-03T02:45:42;102075.88;;;8.48;50.18
70909;BME280;58554;52.006;5.926;2023-05-03T02:48:09;102080.03;;;8.57;50.31
70909;BME280;58554;52.006;5.926;2023-05-03T02:50:38;102074.56;;;8.63;49.98
70909;BME280;58554;52.006;5.926;2023-05-03T02:53:04;102073.59;;;8.67;50.12
70909;BME280;58554;52.006;5.926;2023-05-03T02:55:31;102077.00;;;8.71;50.09
70909;BME280;58554;52.006;5.926;2023-05-03T02:57:57;102071.63;;;8.74;50.05
70909;BME280;58554;52.006;5.926;2023-05-03T03:00:24;102067.31;;;8.71;49.76
70909;BME280;58554;52.006;5.926;2023-05-03T03:02:50;102063.09;;;8.64;49.60
70909;BME280;58554;52.006;5.926;2023-05-03T03:05:17;102067.69;;;8.58;49.86
70909;BME280;58554;52.006;5.926;2023-05-03T03:07:46;102059.97;;;8.51;49.92
70909;BME280;58554;52.006;5.926;2023-05-03T03:10:13;102057.50;;;8.45;50.00
70909;BME280;58554;52.006;5.926;2023-05-03T03:12:39;102057.59;;;8.42;50.05
70909;BME280;58554;52.006;5.926;2023-05-03T03:15:08;102045.44;;;8.37;49.68
70909;BME280;58554;52.006;5.926;2023-05-03T03:17:35;102042.06;;;8.31;49.90
70909;BME280;58554;52.006;5.926;2023-05-03T03:20:02;102039.53;;;8.27;49.85
70909;BME280;58554;52.006;5.926;2023-05-03T03:22:29;102035.22;;;8.24;49.86
70909;BME280;58554;52.006;5.926;2023-05-03T03:24:58;102040.66;;;8.18;49.96
70909;BME280;58554;52.006;5.926;2023-05-03T03:27:24;102043.47;;;8.12;49.93
70909;BME280;58554;52.006;5.926;2023-05-03T03:29:51;102048.84;;;8.07;49.97
70909;BME280;58554;52.006;5.926;2023-05-03T03:32:17;102051.50;;;8.07;49.83
70909;BME280;58554;52.006;5.926;2023-05-03T03:34:44;102048.03;;;8.05;50.18
70909;BME280;58554;52.006;5.926;2023-05-03T03:37:10;102049.81;;;8.05;49.99
70909;BME280;58554;52.006;5.926;2023-05-03T03:39:37;102058.53;;;8.07;50.04
70909;BME280;58554;52.006;5.926;2023-05-03T03:42:06;102059.41;;;8.07;50.13
70909;BME280;58554;52.006;5.926;2023-05-03T03:44:34;102055.88;;;8.08;49.88
70909;BME280;58554;52.006;5.926;2023-05-03T03:47:01;102053.25;;;8.08;50.15
70909;BME280;58554;52.006;5.926;2023-05-03T03:49:27;102061.97;;;8.10;50.13
70909;BME280;58554;52.006;5.926;2023-05-03T03:51:53;102061.06;;;8.10;50.05
70909;BME280;58554;52.006;5.926;2023-05-03T03:54:20;102059.34;;;8.10;49.98
70909;BME280;58554;52.006;5.926;2023-05-03T03:56:46;102055.81;;;8.10;50.22
70909;BME280;58554;52.006;5.926;2023-05-03T03:59:15;102057.59;;;8.09;50.11
70909;BME280;58554;52.006;5.926;2023-05-03T04:01:42;102063.72;;;8.10;49.96
70909;BME280;58554;52.006;5.926;2023-05-03T04:04:08;102061.13;;;8.08;49.96
70909;BME280;58554;52.006;5.926;2023-05-03T04:06:35;102073.50;;;8.06;49.89
70909;BME280;58554;52.006;5.926;2023-05-03T04:09:01;102059.53;;;8.03;49.91
70909;BME280;58554;52.006;5.926;2023-05-03T04:11:28;102070.19;;;7.98;50.11
70909;BME280;58554;52.006;5.926;2023-05-03T04:13:54;102066.91;;;7.88;50.07
70909;BME280;58554;52.006;5.926;2023-05-03T04:16:24;102067.09;;;7.81;49.98
70909;BME280;58554;52.006;5.926;2023-05-03T04:18:50;102075.25;;;7.70;49.95
70909;BME280;58554;52.006;5.926;2023-05-03T04:21:17;102073.75;;;7.60;50.15
70909;BME280;58554;52.006;5.926;2023-05-03T04:23:43;102077.47;;;7.51;50.29
70909;BME280;58554;52.006;5.926;2023-05-03T04:26:09;102077.69;;;7.40;50.41
70909;BME280;58554;52.006;5.926;2023-05-03T04:28:36;102082.28;;;7.30;50.44
70909;BME280;58554;52.006;5.926;2023-05-03T04:31:02;102090.41;;;7.21;50.72
70909;BME280;58554;52.006;5.926;2023-05-03T04:33:32;102096.66;;;7.14;50.62
70909;BME280;58554;52.006;5.926;2023-05-03T04:35:58;102094.16;;;7.08;51.03
70909;BME280;58554;52.006;5.926;2023-05-03T04:38:25;102104.81;;;7.02;51.00
70909;BME280;58554;52.006;5.926;2023-05-03T04:40:51;102103.22;;;6.95;51.37
70909;BME280;58554;52.006;5.926;2023-05-03T04:43:17;102108.63;;;6.88;51.43
70909;BME280;58554;52.006;5.926;2023-05-03T04:45:44;102107.84;;;6.83;51.44
70909;BME280;58554;52.006;5.926;2023-05-03T04:48:10;102100.03;;;6.79;51.46
70909;BME280;58554;52.006;5.926;2023-05-03T04:50:39;102112.41;;;6.75;51.71
70909;BME280;58554;52.006;5.926;2023-05-03T04:53:06;102112.47;;;6.70;51.92
70909;BME280;58554;52.006;5.926;2023-05-03T04:55:32;102118.66;;;6.68;52.15
70909;BME280;58554;52.006;5.926;2023-05-03T04:57:59;102123.06;;;6.66;52.05
70909;BME280;58554;52.006;5.926;2023-05-03T05:00:25;102139.75;;;6.65;52.09
70909;BME280;58554;52.006;5.926;2023-05-03T05:02:52;102138.91;;;6.63;52.35
70909;BME280;58554;52.006;5.926;2023-05-03T05:05:19;102135.44;;;6.61;52.48
70909;BME280;58554;52.006;5.926;2023-05-03T05:07:48;102141.59;;;6.60;52.59
70909;BME280;58554;52.006;5.926;2023-05-03T05:10:14;102146.88;;;6.58;52.89
70909;BME280;58554;52.006;5.926;2023-05-03T05:12:41;102140.75;;;6.58;53.19
70909;BME280;58554;52.006;5.926;2023-05-03T05:15:09;102144.28;;;6.57;53.06
70909;BME280;58554;52.006;5.926;2023-05-03T05:17:36;102151.28;;;6.56;53.15
70909;BME280;58554;52.006;5.926;2023-05-03T05:20:03;102152.16;;;6.57;53.34
70909;BME280;58554;52.006;5.926;2023-05-03T05:22:31;102156.50;;;6.58;53.23
70909;BME280;58554;52.006;5.926;2023-05-03T05:25:00;102148.63;;;6.59;53.35
70909;BME280;58554;52.006;5.926;2023-05-03T05:27:27;102156.50;;;6.59;53.50
70909;BME280;58554;52.006;5.926;2023-05-03T05:29:53;102153.84;;;6.61;53.45
70909;BME280;58554;52.006;5.926;2023-05-03T05:32:20;102152.06;;;6.63;53.70
70909;BME280;58554;52.006;5.926;2023-05-03T05:34:46;102151.03;;;6.70;53.61
70909;BME280;58554;52.006;5.926;2023-05-03T05:37:13;102153.50;;;6.79;53.68
70909;BME280;58554;52.006;5.926;2023-05-03T05:39:39;102158.66;;;6.84;53.44
70909;BME280;58554;52.006;5.926;2023-05-03T05:42:08;102164.81;;;6.83;53.85
70909;BME280;58554;52.006;5.926;2023-05-03T05:44:35;102156.03;;;6.84;53.75
70909;BME280;58554;52.006;5.926;2023-05-03T05:47:01;102163.00;;;6.85;53.90
70909;BME280;58554;52.006;5.926;2023-05-03T05:49:28;102159.53;;;6.83;53.94
70909;BME280;58554;52.006;5.926;2023-05-03T05:51:54;102162.16;;;6.84;53.71
70909;BME280;58554;52.006;5.926;2023-05-03T05:54:21;102161.28;;;6.85;53.81
70909;BME280;58554;52.006;5.926;2023-05-03T05:56:47;102163.84;;;6.87;54.11
70909;BME280;58554;52.006;5.926;2023-05-03T05:59:16;102159.50;;;6.87;54.08
70909;BME280;58554;52.006;5.926;2023-05-03T06:01:43;102162.03;;;6.90;53.93
70909;BME280;58554;52.006;5.926;2023-05-03T06:04:09;102172.44;;;6.97;54.07
70909;BME280;58554;52.006;5.926;2023-05-03T06:06:36;102167.09;;;7.00;54.14
70909;BME280;58554;52.006;5.926;2023-05-03T06:09:02;102170.53;;;7.05;54.09
70909;BME280;58554;52.006;5.926;2023-05-03T06:11:29;102159.88;;;7.11;53.80
70909;BME280;58554;52.006;5.926;2023-05-03T06:13:56;102166.81;;;7.15;53.84
70909;BME280;58554;52.006;5.926;2023-05-03T06:16:25;102164.09;;;7.18;54.09
70909;BME280;58554;52.006;5.926;2023-05-03T06:18:52;102164.00;;;7.23;53.73
70909;BME280;58554;52.006;5.926;2023-05-03T06:21:18;102156.03;;;7.27;53.58
70909;BME280;58554;52.006;5.926;2023-05-03T06:23:46;102159.41;;;7.32;53.51
70909;BME280;58554;52.006;5.926;2023-05-03T06:26:12;102155.81;;;7.37;53.58
70909;BME280;58554;52.006;5.926;2023-05-03T06:28:39;102150.47;;;7.43;53.21
70909;BME280;58554;52.006;5.926;2023-05-03T06:31:05;102159.97;;;7.50;53.38
70909;BME280;58554;52.006;5.926;2023-05-03T06:33:34;102163.28;;;7.58;53.27
70909;BME280;58554;52.006;5.926;2023-05-03T06:36:01;102170.97;;;7.67;53.05
70909;BME280;58554;52.006;5.926;2023-05-03T06:38:27;102160.22;;;7.77;52.91
70909;BME280;58554;52.006;5.926;2023-05-03T06:40:54;102164.38;;;7.87;52.66
70909;BME280;58554;52.006;5.926;2023-05-03T06:43:20;102157.13;;;7.97;52.56
70909;BME280;58554;52.006;5.926;2023-05-03T06:45:47;102155.91;;;8.10;52.48
70909;BME280;58554;52.006;5.926;2023-05-03T06:48:16;102160.75;;;8.27;52.50
70909;BME280;58554;52.006;5.926;2023-05-03T06:50:46;102149.91;;;8.39;52.31
70909;BME280;58554;52.006;5.926;2023-05-03T06:53:12;102152.22;;;8.51;52.16
70909;BME280;58554;52.006;5.926;2023-05-03T06:55:38;102140.47;;;8.65;51.97
70909;BME280;58554;52.006;5.926;2023-05-03T06:58:08;102152.50;;;8.75;51.38
70909;BME280;58554;52.006;5.926;2023-05-03T07:00:34;102144.34;;;8.83;51.29
70909;BME280;58554;52.006;5.926;2023-05-03T07:03:01;102143.19;;;8.93;51.31
70909;BME280;58554;52.006;5.926;2023-05-03T07:05:27;102137.66;;;9.02;51.37
70909;BME280;58554;52.006;5.926;2023-05-03T07:07:56;102139.13;;;9.12;51.24
70909;BME280;58554;52.006;5.926;2023-05-03T07:10:23;102137.09;;;9.21;51.03
70909;BME280;58554;52.006;5.926;2023-05-03T07:12:49;102141.22;;;9.31;50.92
70909;BME280;58554;52.006;5.926;2023-05-03T07:15:16;102137.47;;;9.40;50.96
70909;BME280;58554;52.006;5.926;2023-05-03T07:17:42;102139.81;;;9.49;50.99
70909;BME280;58554;52.006;5.926;2023-05-03T07:20:10;102132.56;;;9.56;50.66
70909;BME280;58554;52.006;5.926;2023-05-03T07:22:37;102145.50;;;9.65;50.43
70909;BME280;58554;52.006;5.926;2023-05-03T07:25:07;102146.16;;;9.71;50.29
70909;BME280;58554;52.006;5.926;2023-05-03T07:27:34;102144.34;;;9.73;50.08
70909;BME280;58554;52.006;5.926;2023-05-03T07:30:01;102151.25;;;9.78;50.22
70909;BME280;58554;52.006;5.926;2023-05-03T07:32:27;102137.75;;;9.87;50.27
70909;BME280;58554;52.006;5.926;2023-05-03T07:34:53;102134.84;;;9.94;50.05
70909;BME280;58554;52.006;5.926;2023-05-03T07:37:20;102134.53;;;10.04;50.20
70909;BME280;58554;52.006;5.926;2023-05-03T07:39:46;102130.78;;;10.11;49.83
70909;BME280;58554;52.006;5.926;2023-05-03T07:42:16;102115.59;;;10.18;49.80
70909;BME280;58554;52.006;5.926;2023-05-03T07:44:42;102114.44;;;10.25;49.73
70909;BME280;58554;52.006;5.926;2023-05-03T07:47:08;102116.16;;;10.27;49.32
70909;BME280;58554;52.006;5.926;2023-05-03T07:49:36;102117.03;;;10.26;49.50
70909;BME280;58554;52.006;5.926;2023-05-03T07:52:03;102104.59;;;10.30;49.32
70909;BME280;58554;52.006;5.926;2023-05-03T07:54:29;102097.47;;;10.32;49.36
70909;BME280;58554;52.006;5.926;2023-05-03T07:56:56;102091.25;;;10.33;49.29
70909;BME280;58554;52.006;5.926;2023-05-03T07:59:25;102103.53;;;10.36;49.27
70909;BME280;58554;52.006;5.926;2023-05-03T08:01:51;102097.25;;;10.38;49.73
70909;BME280;58554;52.006;5.926;2023-05-03T08:04:18;102087.38;;;10.43;49.64
70909;BME280;58554;52.006;5.926;2023-05-03T08:06:44;102099.47;;;10.50;49.41
70909;BME280;58554;52.006;5.926;2023-05-03T08:09:11;102090.59;;;10.51;49.42
70909;BME280;58554;52.006;5.926;2023-05-03T08:11:37;102086.94;;;10.55;49.44
70909;BME280;58554;52.006;5.926;2023-05-03T08:14:04;102091.09;;;10.63;49.22
70909;BME280;58554;52.006;5.926;2023-05-03T08:16:33;102081.19;;;10.68;48.96
70909;BME280;58554;52.006;5.926;2023-05-03T08:18:59;102079.34;;;10.70;49.05
70909;BME280;58554;52.006;5.926;2023-05-03T08:21:26;102089.84;;;10.73;48.91
70909;BME280;58554;52.006;5.926;2023-05-03T08:23:52;102094.25;;;10.72;49.18
70909;BME280;58554;52.006;5.926;2023-05-03T08:26:19;102095.13;;;10.73;49.02
70909;BME280;58554;52.006;5.926;2023-05-03T08:28:45;102095.94;;;10.75;48.92
70909;BME280;58554;52.006;5.926;2023-05-03T08:31:12;102094.03;;;10.79;49.01
70909;BME280;58554;52.006;5.926;2023-05-03T08:33:41;102093.84;;;10.83;49.02
70909;BME280;58554;52.006;5.926;2023-05-03T08:36:07;102096.41;;;10.86;48.74
70909;BME280;58554;52.006;5.926;2023-05-03T08:38:34;102092.81;;;10.87;48.87
70909;BME280;58554;52.006;5.926;2023-05-03T08:41:10;102094.41;;;10.93;49.27
70909;BME280;58554;52.006;5.926;2023-05-03T08:43:44;102098.56;;;11.00;49.03
70909;BME280;58554;52.006;5.926;2023-05-03T08:46:12;102091.31;;;11.05;48.93
70909;BME280;58554;52.006;5.926;2023-05-03T08:48:42;102091.19;;;11.08;48.62
70909;BME280;58554;52.006;5.926;2023-05-03T08:51:12;102088.59;;;11.07;48.58
70909;BME280;58554;52.006;5.926;2023-05-03T08:53:39;102086.72;;;11.10;48.60
70909;BME280;58554;52.006;5.926;2023-05-03T08:56:06;102084.75;;;11.15;48.67
70909;BME280;58554;52.006;5.926;2023-05-03T08:58:34;102068.56;;;11.23;48.64
70909;BME280;58554;52.006;5.926;2023-05-03T09:01:04;102063.97;;;11.27;48.47
70909;BME280;58554;52.006;5.926;2023-05-03T09:03:31;102062.88;;;11.32;48.18
70909;BME280;58554;52.006;5.926;2023-05-03T09:06:01;102066.38;;;11.33;48.53
70909;BME280;58554;52.006;5.926;2023-05-03T09:08:28;102060.19;;;11.34;48.37
70909;BME280;58554;52.006;5.926;2023-05-03T09:10:56;102061.91;;;11.35;48.38
70909;BME280;58554;52.006;5.926;2023-05-03T09:13:29;102074.97;;;11.40;48.59
70909;BME280;58554;52.006;5.926;2023-05-03T09:15:56;102081.00;;;11.43;48.53
70909;BME280;58554;52.006;5.926;2023-05-03T09:18:23;102083.41;;;11.49;48.42
70909;BME280;58554;52.006;5.926;2023-05-03T09:20:50;102090.34;;;11.52;48.00
70909;BME280;58554;52.006;5.926;2023-05-03T09:23:28;102089.44;;;11.53;47.90
70909;BME280;58554;52.006;5.926;2023-05-03T09:25:57;102094.69;;;11.54;48.22
70909;BME280;58554;52.006;5.926;2023-05-03T09:28:24;102087.53;;;11.57;47.92
70909;BME280;58554;52.006;5.926;2023-05-03T09:31:03;102089.31;;;11.56;47.65
70909;BME280;58554;52.006;5.926;2023-05-03T09:33:31;102092.94;;;11.53;47.84
70909;BME280;58554;52.006;5.926;2023-05-03T09:36:00;102085.75;;;11.57;47.91
70909;BME280;58554;52.006;5.926;2023-05-03T09:38:32;102083.75;;;11.62;48.15
70909;BME280;58554;52.006;5.926;2023-05-03T09:40:59;102085.44;;;11.65;48.16
70909;BME280;58554;52.006;5.926;2023-05-03T09:43:26;102088.97;;;11.65;48.09
70909;BME280;58554;52.006;5.926;2023-05-03T09:46:06;102081.84;;;11.66;47.80
70909;BME280;58554;52.006;5.926;2023-05-03T09:48:34;102079.16;;;11.67;47.71
70909;BME280;58554;52.006;5.926;2023-05-03T09:51:02;102078.09;;;11.71;47.74
70909;BME280;58554;52.006;5.926;2023-05-03T09:53:33;102075.25;;;11.76;47.67
70909;BME280;58554;52.006;5.926;2023-05-03T09:56:02;102081.34;;;11.78;47.64
70909;BME280;58554;52.006;5.926;2023-05-03T09:58:31;102076.84;;;11.80;47.78
70909;BME280;58554;52.006;5.926;2023-05-03T10:01:00;102082.09;;;11.82;47.52
70909;BME280;58554;52.006;5.926;2023-05-03T10:03:33;102069.50;;;11.87;47.26
70909;BME280;58554;52.006;5.926;2023-05-03T10:06:05;102062.25;;;11.92;47.53
70909;BME280;58554;52.006;5.926;2023-05-03T10:08:48;102066.34;;;11.99;47.46
70909;BME280;58554;52.006;5.926;2023-05-03T10:11:18;102069.78;;;12.01;47.32
70909;BME280;58554;52.006;5.926;2023-05-03T10:13:47;102065.28;;;12.03;46.85
70909;BME280;58554;52.006;5.926;2023-05-03T10:16:18;102059.94;;;12.05;47.22
70909;BME280;58554;52.006;5.926;2023-05-03T10:18:53;102070.31;;;12.09;47.15
70909;BME280;58554;52.006;5.926;2023-05-03T10:21:34;102061.31;;;12.13;47.51
70909;BME280;58554;52.006;5.926;2023-05-03T10:24:15;102056.59;;;12.20;47.63
70909;BME280;58554;52.006;5.926;2023-05-03T10:26:44;102067.78;;;12.27;47.13
70909;BME280;58554;52.006;5.926;2023-05-03T10:32:35;102051.38;;;12.39;46.69
70909;BME280;58554;52.006;5.926;2023-05-03T10:35:06;102056.56;;;12.42;47.06
70909;BME280;58554;52.006;5.926;2023-05-03T10:37:33;102065.16;;;12.47;46.88
70909;BME280;58554;52.006;5.926;2023-05-03T10:40:14;102052.47;;;12.54;46.99
70909;BME280;58554;52.006;5.926;2023-05-03T10:42:48;102048.84;;;12.56;47.06
70909;BME280;58554;52.006;5.926;2023-05-03T10:45:20;102040.00;;;12.56;46.60
70909;BME280;58554;52.006;5.926;2023-05-03T10:48:16;102053.00;;;12.62;46.36
70909;BME280;58554;52.006;5.926;2023-05-03T10:50:43;102052.19;;;12.60;46.73
70909;BME280;58554;52.006;5.926;2023-05-03T10:53:33;102046.84;;;12.62;46.36
70909;BME280;58554;52.006;5.926;2023-05-03T10:56:05;102036.22;;;12.62;46.60
70909;BME280;58554;52.006;5.926;2023-05-03T10:58:35;102038.66;;;12.66;46.68
70909;BME280;58554;52.006;5.926;2023-05-03T11:01:03;102041.75;;;12.76;46.87
70909;BME280;58554;52.006;5.926;2023-05-03T11:03:42;102037.09;;;12.81;46.15
70909;BME280;58554;52.006;5.926;2023-05-03T11:06:29;102035.16;;;12.85;46.18
70909;BME280;58554;52.006;5.926;2023-05-03T11:08:57;102041.19;;;12.88;46.16
70909;BME280;58554;52.006;5.926;2023-05-03T11:11:26;102027.84;;;12.90;45.87
70909;BME280;58554;52.006;5.926;2023-05-03T11:13:53;102030.28;;;12.94;45.68
70909;BME280;58554;52.006;5.926;2023-05-03T11:16:20;102023.91;;;12.99;46.01
70909;BME280;58554;52.006;5.926;2023-05-03T11:18:46;102020.16;;;13.03;45.96
70909;BME280;58554;52.006;5.926;2023-05-03T11:21:14;102016.44;;;13.07;45.93
70909;BME280;58554;52.006;5.926;2023-05-03T11:23:42;102009.03;;;13.13;46.20
70909;BME280;58554;52.006;5.926;2023-05-03T11:26:09;102003.66;;;13.15;45.94
70909;BME280;58554;52.006;5.926;2023-05-03T11:28:40;102005.13;;;13.21;46.11
70909;BME280;58554;52.006;5.926;2023-05-03T11:31:08;102003.13;;;13.26;45.87
70909;BME280;58554;52.006;5.926;2023-05-03T11:33:36;102012.59;;;13.31;45.85
70909;BME280;58554;52.006;5.926;2023-05-03T11:36:06;102006.25;;;13.34;45.82
70909;BME280;58554;52.006;5.926;2023-05-03T11:38:34;101998.00;;;13.40;45.58
70909;BME280;58554;52.006;5.926;2023-05-03T11:41:11;101992.38;;;13.46;45.50
70909;BME280;58554;52.006;5.926;2023-05-03T11:43:45;101991.97;;;13.54;45.96
70909;BME280;58554;52.006;5.926;2023-05-03T11:46:16;101989.91;;;13.61;45.42
70909;BME280;58554;52.006;5.926;2023-05-03T11:48:46;101985.22;;;13.66;45.05
70909;BME280;58554;52.006;5.926;2023-05-03T11:51:12;101980.53;;;13.71;45.51
70909;BME280;58554;52.006;5.926;2023-05-03T11:53:40;101969.44;;;13.80;45.28
70909;BME280;58554;52.006;5.926;2023-05-03T11:56:10;101983.97;;;13.90;45.08
70909;BME280;58554;52.006;5.926;2023-05-03T11:58:51;101978.16;;;14.00;44.60
70909;BME280;58554;52.006;5.926;2023-05-03T12:01:22;101976.06;;;14.06;44.59
70909;BME280;58554;52.006;5.926;2023-05-03T12:03:54;101972.25;;;14.10;44.03
70909;BME280;58554;52.006;5.926;2023-05-03T12:06:22;101974.84;;;14.12;43.85
70909;BME280;58554;52.006;5.926;2023-05-03T12:08:49;101976.47;;;14.14;44.01
70909;BME280;58554;52.006;5.926;2023-05-03T12:11:15;101968.09;;;14.22;44.26
70909;BME280;58554;52.006;5.926;2023-05-03T12:13:42;101973.94;;;14.29;44.11
70909;BME280;58554;52.006;5.926;2023-05-03T12:16:11;101969.19;;;14.35;44.22
70909;BME280;58554;52.006;5.926;2023-05-03T12:18:46;101969.53;;;14.45;44.13
70909;BME280;58554;52.006;5.926;2023-05-03T12:21:14;101960.28;;;14.52;43.97
70909;BME280;58554;52.006;5.926;2023-05-03T12:23:41;101959.16;;;14.56;43.96
70909;BME280;58554;52.006;5.926;2023-05-03T12:26:07;101954.44;;;14.62;44.11
70909;BME280;58554;52.006;5.926;2023-05-03T12:28:34;101950.66;;;14.66;43.95
70909;BME280;58554;52.006;5.926;2023-05-03T12:31:00;101947.59;;;14.73;43.69
70909;BME280;58554;52.006;5.926;2023-05-03T12:33:29;101943.63;;;14.81;43.57
70909;BME280;58554;52.006;5.926;2023-05-03T12:35:56;101943.38;;;14.85;43.48
70909;BME280;58554;52.006;5.926;2023-05-03T12:38:22;101937.88;;;14.88;43.45
70909;BME280;58554;52.006;5.926;2023-05-03T12:40:49;101940.22;;;14.94;43.58
70909;BME280;58554;52.006;5.926;2023-05-03T12:43:15;101926.34;;;15.04;43.58
70909;BME280;58554;52.006;5.926;2023-05-03T12:45:42;101927.88;;;15.08;43.02
70909;BME280;58554;52.006;5.926;2023-05-03T12:48:08;101918.78;;;15.12;42.98
70909;BME280;58554;52.006;5.926;2023-05-03T12:50:37;101918.34;;;15.19;43.00
70909;BME280;58554;52.006;5.926;2023-05-03T12:53:04;101910.84;;;15.26;42.71
70909;BME280;58554;52.006;5.926;2023-05-03T12:55:31;101912.44;;;15.29;42.70
70909;BME280;58554;52.006;5.926;2023-05-03T12:57:57;101913.13;;;15.32;42.67
70909;BME280;58554;52.006;5.926;2023-05-03T13:00:24;101913.63;;;15.39;42.60
70909;BME280;58554;52.006;5.926;2023-05-03T13:02:50;101904.50;;;15.43;42.65
70909;BME280;58554;52.006;5.926;2023-05-03T13:05:17;101892.63;;;15.49;42.39